DW8453 Bekkjarvik NO current weather conditions

sailwx.info

Wind from 165 at 1 knots gusting 4

Air temperature 12.2° C
Dewpoint 10.3° C

Last reported at 2015-Aug-03 07:43 UTC.
Time now 2015-Aug-03 17:09 UTC

Location: N 60°01' E 005°12'.
View on Google Maps.

See reports from other nearby stations

  
Tides and Currents Weather Stations Pressure Air Temp Water Temp Dewpoint Dewpoint Depression Visibility Wind Speed Wind Dir Waves Ship Positions
date/time (UTC)wind fromknots sea level pressurealtimeterstation pressurevisibilityair tempwater tempwave heightnotes
2015-Aug-03 07:43 165 1 gusting 4 12.2
2015-Aug-03 07:38 128 5 gusting 6 12.2
2015-Aug-03 07:33 091 6 gusting 7 12.2
2015-Aug-03 07:28 136 6 gusting 6 12.2
2015-Aug-03 07:23 120 6 gusting 7 12.2
2015-Aug-03 07:18 140 5 gusting 5 12.2
2015-Aug-03 07:13 099 6 gusting 5 12.2
2015-Aug-03 07:08 104 6 gusting 6 12.2
2015-Aug-03 07:03 106 6 gusting 5 12.2
2015-Aug-03 06:58 147 7 gusting 7 11.7
2015-Aug-03 06:53 139 8 gusting 7 11.7
2015-Aug-03 06:48 122 6 gusting 8 11.7
2015-Aug-03 06:43 144 6 gusting 6 11.7
2015-Aug-03 06:38 122 7 gusting 6 11.7
2015-Aug-03 06:33 135 7 gusting 6 11.7
2015-Aug-03 06:28 111 3 gusting 4 11.7
2015-Aug-03 06:23 106 5 gusting 5 11.7
2015-Aug-03 06:18 122 4 gusting 4 11.7
2015-Aug-03 06:13 109 6 gusting 6 11.7
2015-Aug-03 06:08 139 3 gusting 4 11.1
2015-Aug-03 06:03 113 5 gusting 5 11.1
2015-Aug-03 05:58 132 3 gusting 4 11.1
2015-Aug-03 05:53 128 5 gusting 5 11.1
2015-Aug-03 05:48 109 5 gusting 5 11.1
2015-Aug-03 05:43 136 6 gusting 6 11.1
2015-Aug-03 05:38 124 5 gusting 5 11.1
2015-Aug-03 05:33 138 5 gusting 5 11.1
2015-Aug-03 05:28 126 5 gusting 6 11.1
2015-Aug-03 05:23 126 4 gusting 6 11.1
2015-Aug-03 05:18 137 2 gusting 2 10.6
2015-Aug-03 05:13 129 5 gusting 5 10.6
2015-Aug-03 05:08 147 3 gusting 2 10.6
2015-Aug-03 05:03 169 4 gusting 5 10.6
2015-Aug-03 04:58 137 4 gusting 5 10.6
2015-Aug-03 04:53 172 4 gusting 5 10.6
2015-Aug-03 04:48 127 5 gusting 5 10.6
2015-Aug-03 04:43 144 5 gusting 5 10.6
2015-Aug-03 04:38 151 7 gusting 6 10.6
2015-Aug-03 04:33 142 5 gusting 5 10.6
2015-Aug-03 04:28 128 7 gusting 7 10.6
2015-Aug-03 04:23 141 3 gusting 6 10.6
2015-Aug-03 04:18 132 4 gusting 4 10.6
2015-Aug-03 04:13 149 5 gusting 5 10.0
2015-Aug-03 04:08 155 4 gusting 6 10.0
2015-Aug-03 04:03 131 4 gusting 6 10.0
2015-Aug-03 03:58 119 1 gusting 5 10.0
2015-Aug-03 03:53 132 0 gusting 1 10.0
2015-Aug-03 03:48 132 2 gusting 2 10.0
2015-Aug-03 03:43 142 3 gusting 2 10.0
2015-Aug-03 03:38 172 4 gusting 6 10.0
2015-Aug-03 03:33 135 4 gusting 5 10.0
2015-Aug-03 03:28 126 4 gusting 5 10.0
2015-Aug-03 03:23 128 5 gusting 5 10.0
2015-Aug-03 03:18 122 6 gusting 6 10.0
2015-Aug-03 03:13 144 4 gusting 4 10.0
2015-Aug-03 03:08 146 4 gusting 4 10.0
2015-Aug-03 03:03 132 5 gusting 5 10.0
2015-Aug-03 02:58 132 4 gusting 5 10.0
2015-Aug-03 02:53 134 4 gusting 4 10.0
2015-Aug-03 02:48 138 4 gusting 4 10.0
2015-Aug-03 02:43 169 3 gusting 4 10.0
2015-Aug-03 02:38 176 3 gusting 2 10.0
2015-Aug-03 02:33 136 1 gusting 1 10.0
2015-Aug-03 02:28 141 1 gusting 1 10.0
2015-Aug-03 02:23 147 2 gusting 1 10.0
2015-Aug-03 02:18 149 2 gusting 2 10.0
2015-Aug-03 02:13 155 3 gusting 2 10.0
2015-Aug-03 02:08 122 2 gusting 1 10.0
2015-Aug-03 02:03 152 2 gusting 1 10.0
2015-Aug-03 01:58 126 2 gusting 2 10.0
2015-Aug-03 01:53 127 5 gusting 4 10.0
2015-Aug-03 01:48 155 5 gusting 5 10.0
2015-Aug-03 01:43 138 5 gusting 4 10.0
2015-Aug-03 01:38 121 4 gusting 4 10.0
2015-Aug-03 01:33 132 1 gusting 1 10.0
2015-Aug-03 01:28 143 2 gusting 4 10.0
2015-Aug-03 01:23 132 3 gusting 2 10.0
2015-Aug-03 01:18 151 3 gusting 2 10.0
2015-Aug-03 01:13 141 4 gusting 5 10.0
2015-Aug-03 01:08 147 3 gusting 4 10.0
2015-Aug-03 01:03 166 1 gusting 1 10.0
2015-Aug-03 00:58 175 2 gusting 2 10.6
2015-Aug-03 00:53 136 2 gusting 1 10.6
2015-Aug-03 00:48 153 1 gusting 1 10.6
2015-Aug-03 00:43 138 4 gusting 2 10.6
2015-Aug-03 00:38 155 2 gusting 1 10.6
2015-Aug-03 00:33 137 1 gusting 1 10.6
2015-Aug-03 00:28 146 4 gusting 2 10.0
2015-Aug-03 00:23 141 2 gusting 1 10.0
2015-Aug-03 00:18 146 1 gusting 0 10.0
2015-Aug-03 00:13 154 1 gusting 1 10.6
2015-Aug-03 00:08 159 2 gusting 4 10.6
2015-Aug-03 00:03 138 4 gusting 4 10.6
2015-Aug-02 23:58 132 2 gusting 1 10.6
2015-Aug-02 23:53 164 2 gusting 1 10.6
2015-Aug-02 23:48 138 2 gusting 1 10.6
2015-Aug-02 23:43 155 1 gusting 1 10.6
2015-Aug-02 23:38 136 3 gusting 2 10.6
2015-Aug-02 23:33 130 2 gusting 1 10.6
2015-Aug-02 23:28 138 4 gusting 2 10.6
2015-Aug-02 23:23 126 4 gusting 4 10.6
2015-Aug-02 23:18 142 6 gusting 5 10.6
2015-Aug-02 23:13 132 4 gusting 4 10.6
2015-Aug-02 23:08 132 4 gusting 2 10.6
2015-Aug-02 23:03 132 4 gusting 2 10.6
2015-Aug-02 22:58 127 4 gusting 2 10.6
2015-Aug-02 22:53 119 2 gusting 1 10.6
2015-Aug-02 22:48 131 1 gusting 1 10.6
2015-Aug-02 22:43 109 1 gusting 1 10.6
2015-Aug-02 22:38 109 2 gusting 1 10.6
2015-Aug-02 22:33 130 2 gusting 1 10.6
2015-Aug-02 22:28 125 2 gusting 1 10.6
2015-Aug-02 22:23 152 1 gusting 1 10.6
2015-Aug-02 22:18 164 2 gusting 1 10.6
2015-Aug-02 22:13 151 1 gusting 0 11.1
2015-Aug-02 22:08 128 1 gusting 0 11.1
2015-Aug-02 22:03 132 1 gusting 0 11.1
2015-Aug-02 21:58 136 1 gusting 0 11.1
2015-Aug-02 21:53 109 0 gusting 0 11.7
2015-Aug-02 21:48 132 1 gusting 0 11.7
2015-Aug-02 21:43 132 0 gusting 0 11.7
2015-Aug-02 21:38 155 11.7
2015-Aug-02 21:33 177 12.2
2015-Aug-02 21:28 245 12.2
2015-Aug-02 21:23 245 12.2
2015-Aug-02 21:18 245 0 gusting 0 12.2
2015-Aug-02 21:13 245 12.8
2015-Aug-02 21:08 209 0 gusting 0 12.8
2015-Aug-02 21:03 335 12.8
2015-Aug-02 20:58 019 1 gusting 0 13.3
2015-Aug-02 20:53 289 13.3
2015-Aug-02 20:48 289 13.3
2015-Aug-02 20:43 289 13.9
2015-Aug-02 20:38 312 13.9
2015-Aug-02 20:33 289 14.4
2015-Aug-02 20:28 011 0 gusting 0 14.4
2015-Aug-02 20:23 266 15.0
2015-Aug-02 20:18 315 0 gusting 0 15.6
2015-Aug-02 20:13 255 16.1
2015-Aug-02 20:08 155 16.7
2015-Aug-02 20:03 177 17.2
2015-Aug-02 19:58 245 17.2
2015-Aug-02 19:53 263 17.8
2015-Aug-02 19:48 312 18.3
2015-Aug-02 19:43 284 18.9
2015-Aug-02 19:38 247 0 gusting 1 20.0
2015-Aug-02 19:33 254 1 gusting 1 20.6
2015-Aug-02 19:28 245 0 gusting 1 21.7
2015-Aug-02 19:23 260 2 gusting 1 22.8
2015-Aug-02 19:18 250 1 gusting 1 23.9
2015-Aug-02 19:13 247 2 gusting 2 24.4
2015-Aug-02 19:08 245 4 gusting 4 25.0
2015-Aug-02 19:03 244 2 gusting 4 25.6
2015-Aug-02 18:58 230 4 gusting 4 25.6
2015-Aug-02 18:53 228 4 gusting 5 26.1
2015-Aug-02 18:48 229 4 gusting 4 26.1
2015-Aug-02 18:43 231 4 gusting 2 26.1
2015-Aug-02 18:38 270 2 gusting 2 26.7
2015-Aug-02 18:33 246 4 gusting 5 26.7
2015-Aug-02 18:28 249 2 gusting 2 27.2
2015-Aug-02 18:23 256 3 gusting 2 27.2
2015-Aug-02 18:18 237 3 gusting 4 26.7
2015-Aug-02 18:13 245 2 gusting 4 26.7
2015-Aug-02 18:08 260 2 gusting 5 27.2
2015-Aug-02 18:03 253 2 gusting 2 27.8
2015-Aug-02 17:58 249 4 gusting 5 28.3
2015-Aug-02 17:53 234 3 gusting 4 28.3
2015-Aug-02 17:48 216 2 gusting 4 28.3
2015-Aug-02 17:43 177 6 gusting 7 27.8
2015-Aug-02 17:38 234 2 gusting 4 27.2
2015-Aug-02 17:33 235 4 gusting 5 27.2
2015-Aug-02 17:28 256 2 gusting 5 27.2
2015-Aug-02 17:23 264 3 gusting 5 26.7
2015-Aug-02 17:18 217 2 gusting 4 26.1
2015-Aug-02 17:13 257 2 gusting 2 25.6
2015-Aug-02 17:08 242 4 gusting 4 24.4
2015-Aug-02 17:03 246 4 gusting 4 22.8
2015-Aug-02 16:58 263 4 gusting 4 21.1
2015-Aug-02 16:53 212 5 gusting 5 18.9
2015-Aug-02 16:48 243 4 gusting 4 17.2
2015-Aug-02 16:43 257 1 gusting 4 16.1
2015-Aug-02 16:38 266 2 gusting 4 16.1
2015-Aug-02 16:33 278 1 gusting 1 16.1
2015-Aug-02 16:28 247 2 gusting 4 16.1
2015-Aug-02 16:23 265 2 gusting 4 16.1
2015-Aug-02 16:18 206 4 gusting 5 16.1
2015-Aug-02 16:13 253 3 gusting 5 16.1
2015-Aug-02 16:08 255 4 gusting 6 16.1
2015-Aug-02 16:03 232 5 gusting 6 16.1
2015-Aug-02 15:58 206 7 gusting 6 16.1
2015-Aug-02 15:53 196 7 gusting 6 16.1
2015-Aug-02 15:48 217 5 gusting 6 16.1
2015-Aug-02 15:43 252 6 gusting 6 16.1
2015-Aug-02 15:38 230 7 gusting 7 16.1
2015-Aug-02 15:33 199 6 gusting 7 16.1
2015-Aug-02 15:28 240 8 gusting 7 16.1
2015-Aug-02 15:23 219 5 gusting 6 16.1
2015-Aug-02 15:18 225 5 gusting 6 16.1
2015-Aug-02 15:13 239 9 gusting 6 16.1
2015-Aug-02 15:08 230 4 gusting 6 15.6
2015-Aug-02 15:03 283 6 gusting 6 16.1
2015-Aug-02 14:58 257 6 gusting 6 16.1
2015-Aug-02 14:53 242 8 gusting 7 16.1
2015-Aug-02 14:48 264 8 gusting 6 16.1
2015-Aug-02 14:43 256 8 gusting 6 16.1
2015-Aug-02 14:38 245 7 gusting 6 15.6
2015-Aug-02 14:33 229 6 gusting 10 15.6
2015-Aug-02 14:28 247 5 gusting 7 15.6
2015-Aug-02 14:23 267 8 gusting 10 15.6
2015-Aug-02 14:18 246 8 gusting 7 15.6
2015-Aug-02 14:13 279 9 gusting 11 15.6
2015-Aug-02 14:08 278 10 gusting 10 15.6
2015-Aug-02 14:03 245 6 gusting 5 15.6
2015-Aug-02 13:58 201 7 gusting 8 15.0
2015-Aug-02 13:53 248 8 gusting 8 15.0
2015-Aug-02 13:48 233 6 gusting 8 15.0
2015-Aug-02 13:43 241 8 gusting 8 15.0
2015-Aug-02 13:38 253 10 gusting 10 15.0
2015-Aug-02 13:33 281 11 gusting 13 15.0
2015-Aug-02 13:28 245 7 gusting 7 14.4
2015-Aug-02 13:23 244 7 gusting 8 14.4
2015-Aug-02 13:18 233 7 gusting 7 14.4
2015-Aug-02 13:13 233 8 gusting 8 13.9
2015-Aug-02 13:08 235 8 gusting 11 13.9
2015-Aug-02 13:03 257 12 gusting 11 13.9
2015-Aug-02 12:58 253 10 gusting 8 13.3
2015-Aug-02 12:53 298 3 gusting 4 13.3
2015-Aug-02 12:48 119 8 gusting 8 13.3
2015-Aug-02 12:43 215 4 gusting 6 13.3
2015-Aug-02 12:38 217 5 gusting 5 12.8
2015-Aug-02 12:33 247 1 gusting 2 12.8
2015-Aug-02 12:28 208 2 gusting 4 12.2
2015-Aug-02 12:23 238 1 gusting 6 12.2
2015-Aug-02 12:18 255 2 gusting 1 11.7
2015-Aug-02 12:13 244 0 gusting 2 11.7
2015-Aug-02 12:08 236 0 gusting 1 11.7
2015-Aug-02 12:03 333 1 gusting 1 11.1
2015-Aug-02 11:58 315 1 gusting 0 11.7
2015-Aug-02 11:53 314 1 gusting 1 11.1
2015-Aug-02 11:48 323 1 gusting 0 11.1
2015-Aug-02 11:43 297 1 gusting 2 10.6
2015-Aug-02 11:38 007 2 gusting 2 10.6
2015-Aug-02 11:33 350 4 gusting 6 10.6
2015-Aug-02 11:28 007 10 gusting 8 11.1
2015-Aug-02 11:23 294 11 gusting 10 11.7
2015-Aug-02 11:18 302 6 gusting 8 12.8
2015-Aug-02 11:13 267 4 gusting 11 13.3
2015-Aug-02 11:08 245 15 gusting 17 15.0
2015-Aug-02 11:03 203 9 gusting 11 15.0
2015-Aug-02 10:58 201 14 gusting 13 15.6
2015-Aug-02 10:53 215 12 gusting 13 15.6
2015-Aug-02 10:48 217 6 gusting 7 15.6
2015-Aug-02 10:43 257 8 gusting 6 15.6
2015-Aug-02 10:38 202 7 gusting 7 15.6
2015-Aug-02 10:33 245 7 gusting 6 15.6
2015-Aug-02 10:28 211 6 gusting 6 15.6
2015-Aug-02 10:23 190 6 gusting 8 15.6
2015-Aug-02 10:18 243 6 gusting 8 15.0
2015-Aug-02 10:13 222 11 gusting 8 15.0
2015-Aug-02 10:08 211 10 gusting 11 15.0
2015-Aug-02 10:03 214 10 gusting 8 14.4
2015-Aug-02 09:58 223 8 gusting 10 14.4
2015-Aug-02 09:53 219 12 gusting 11 14.4
2015-Aug-02 09:48 199 10 gusting 11 15.0
2015-Aug-02 09:43 236 13 gusting 12 15.0
2015-Aug-02 09:38 196 14 gusting 13 15.6
2015-Aug-02 09:33 187 19 gusting 14 15.6
2015-Aug-02 09:28 212 9 gusting 13 15.6
2015-Aug-02 09:23 234 13 gusting 13 15.6
2015-Aug-02 09:18 199 11 gusting 13 15.6
2015-Aug-02 09:13 218 6 gusting 6 15.6
2015-Aug-02 09:08 210 8 gusting 10 15.0
2015-Aug-02 09:03 225 10 gusting 10 15.0
2015-Aug-02 08:58 204 8 gusting 11 15.0
2015-Aug-02 08:53 190 8 gusting 13 14.4
2015-Aug-02 08:48 199 17 gusting 14 14.4
2015-Aug-02 08:43 164 8 gusting 10 14.4
2015-Aug-02 08:38 188 10 gusting 11 13.9
2015-Aug-02 08:33 191 11 gusting 13 13.3
2015-Aug-02 08:28 187 17 gusting 14 13.3
2015-Aug-02 08:23 189 12 gusting 17 13.3
2015-Aug-02 08:18 175 12 gusting 13 12.8
2015-Aug-02 08:13 191 11 gusting 12 12.8
2015-Aug-02 08:08 141 10 gusting 11 12.2
2015-Aug-02 08:03 190 6 gusting 10 12.2
2015-Aug-02 07:58 143 9 gusting 10 12.2
2015-Aug-02 07:53 159 7 gusting 6 11.7
2015-Aug-02 07:48 140 6 gusting 6 11.1
2015-Aug-02 07:43 157 6 gusting 6 11.1
2015-Aug-02 07:38 158 5 gusting 6 11.1
2015-Aug-02 07:33 193 8 gusting 7 11.1
2015-Aug-02 07:28 156 10 gusting 7 11.1
2015-Aug-02 07:23 192 9 gusting 7 10.6
2015-Aug-02 07:18 160 6 gusting 6 10.6
2015-Aug-02 07:13 179 8 gusting 7 10.6
2015-Aug-02 07:08 168 9 gusting 8 10.6
2015-Aug-02 07:03 141 10 gusting 10 10.6
2015-Aug-02 06:58 177 7 gusting 7 10.6
2015-Aug-02 06:53 167 8 gusting 8 10.6
2015-Aug-02 06:48 163 6 gusting 8 10.6
2015-Aug-02 06:43 155 8 gusting 8 10.6
2015-Aug-02 06:38 168 10 gusting 13 10.6
2015-Aug-02 06:33 126 16 gusting 13 10.6
2015-Aug-02 06:28 136 10 gusting 11 10.6
2015-Aug-02 06:23 123 10 gusting 11 10.6
2015-Aug-02 06:18 136 13 gusting 12 10.6
2015-Aug-02 06:13 150 7 gusting 6 10.6
2015-Aug-02 06:08 187 8 gusting 11 10.6
2015-Aug-02 06:03 187 10 gusting 8 10.6
2015-Aug-02 05:58 169 8 gusting 8 10.6
2015-Aug-02 05:53 159 7 gusting 10 10.6
2015-Aug-02 05:48 217 9 gusting 8 10.6
2015-Aug-02 05:43 142 11 gusting 12 10.6
2015-Aug-02 05:38 150 13 gusting 13 10.6
2015-Aug-02 05:33 133 12 gusting 13 10.6
2015-Aug-02 05:28 146 14 gusting 13 11.1
2015-Aug-02 05:23 154 8 gusting 8 11.1
2015-Aug-02 05:18 132 13 gusting 12 11.1
2015-Aug-02 05:13 141 12 gusting 11 11.1
2015-Aug-02 05:08 108 10 gusting 10 10.6
2015-Aug-02 05:03 108 10 gusting 8 10.6
2015-Aug-02 04:58 119 8 gusting 7 10.6
2015-Aug-02 04:53 128 10 gusting 10 10.6
2015-Aug-02 04:48 102 8 gusting 8 10.6
2015-Aug-02 04:43 102 6 gusting 6 10.6
2015-Aug-02 04:38 155 9 gusting 7 10.6
2015-Aug-02 04:33 188 4 gusting 5 10.6
2015-Aug-02 04:28 148 5 gusting 5 10.6
2015-Aug-02 04:23 172 6 gusting 8 10.6
2015-Aug-02 04:18 155 5 gusting 7 10.6
2015-Aug-02 04:13 149 8 gusting 8 10.6
2015-Aug-02 04:08 207 9 gusting 11 10.6
2015-Aug-02 04:03 139 10 gusting 11 10.6
2015-Aug-02 03:58 168 8 gusting 11 10.6
2015-Aug-02 03:53 184 13 gusting 14 10.6
2015-Aug-02 03:48 177 12 gusting 12 10.6
2015-Aug-02 03:43 158 11 gusting 10 10.6
2015-Aug-02 03:38 162 7 gusting 7 10.6
2015-Aug-02 03:33 163 5 gusting 5 10.6
2015-Aug-02 03:28 134 7 gusting 6 10.6
2015-Aug-02 03:23 152 7 gusting 8 10.6
2015-Aug-02 03:18 142 6 gusting 6 10.6
2015-Aug-02 03:13 123 5 gusting 5 10.6
2015-Aug-02 03:08 133 8 gusting 6 10.6
2015-Aug-02 03:03 132 7 gusting 10 10.6
2015-Aug-02 02:58 143 7 gusting 7 10.6
2015-Aug-02 02:53 175 6 gusting 6 10.6
2015-Aug-02 02:48 146 6 gusting 6 10.6
2015-Aug-02 02:43 133 5 gusting 5 10.6
2015-Aug-02 02:38 168 4 gusting 6 10.6
2015-Aug-02 02:33 133 5 gusting 5 10.0
2015-Aug-02 02:28 136 2 gusting 2 10.0
2015-Aug-02 02:23 149 3 gusting 2 10.0
2015-Aug-02 02:18 171 2 gusting 2 10.0
2015-Aug-02 02:13 140 4 gusting 2 10.0
2015-Aug-02 02:08 163 4 gusting 4 10.0
2015-Aug-02 02:03 159 2 gusting 5 10.0
2015-Aug-02 01:58 171 5 gusting 6 10.0
2015-Aug-02 01:53 157 3 gusting 4 10.0
2015-Aug-02 01:48 149 4 gusting 4 10.6
2015-Aug-02 01:43 164 2 gusting 2 10.6
2015-Aug-02 01:38 147 2 gusting 4 10.6
2015-Aug-02 01:33 150 4 gusting 6 10.6
2015-Aug-02 01:28 163 4 gusting 4 10.6
2015-Aug-02 01:23 170 2 gusting 2 10.6
2015-Aug-02 01:18 166 5 gusting 5 10.6
2015-Aug-02 01:13 166 7 gusting 6 10.6
2015-Aug-02 01:08 196 6 gusting 6 10.6
2015-Aug-02 01:03 188 4 gusting 5 10.6
2015-Aug-02 00:58 194 5 gusting 5 10.6
2015-Aug-02 00:53 199 6 gusting 5 10.6
2015-Aug-02 00:48 210 4 gusting 6 10.6
2015-Aug-02 00:43 191 6 gusting 7 10.6
2015-Aug-02 00:38 183 6 gusting 6 10.6
2015-Aug-02 00:33 182 6 gusting 6 10.6
2015-Aug-02 00:28 190 8 gusting 6 10.6
2015-Aug-02 00:23 181 8 gusting 6 10.6
2015-Aug-02 00:18 184 7 gusting 6 10.6
2015-Aug-02 00:13 199 7 gusting 6 10.6
2015-Aug-02 00:08 204 6 gusting 5 10.6
2015-Aug-02 00:03 170 5 gusting 6 10.6
2015-Aug-01 23:58 183 7 gusting 6 10.6
2015-Aug-01 23:53 177 7 gusting 6 10.6
2015-Aug-01 23:48 199 8 gusting 8 10.6
2015-Aug-01 23:43 189 8 gusting 6 10.6
2015-Aug-01 23:38 195 10 gusting 10 10.6
2015-Aug-01 23:33 163 11 gusting 11 11.1
2015-Aug-01 23:28 182 13 gusting 13 11.1
2015-Aug-01 23:23 184 19 gusting 17 11.1
2015-Aug-01 23:18 194 15 gusting 17 11.7
2015-Aug-01 23:13 181 16 gusting 18 11.7
2015-Aug-01 23:08 203 10 gusting 12 11.7
2015-Aug-01 22:58 183 6 gusting 5 11.1
2015-Aug-01 22:53 157 5 gusting 6 11.1
2015-Aug-01 22:48 190 8 gusting 7 11.1
2015-Aug-01 22:43 173 9 gusting 7 11.1
2015-Aug-01 22:38 180 9 gusting 7 11.1
2015-Aug-01 22:33 184 8 gusting 10 11.1
2015-Aug-01 22:28 194 8 gusting 10 11.7
2015-Aug-01 22:23 222 6 gusting 6 11.7
2015-Aug-01 22:18 180 6 gusting 8 11.7
2015-Aug-01 22:13 177 8 gusting 7 11.7
2015-Aug-01 22:08 154 8 gusting 10 11.7
2015-Aug-01 22:03 178 6 gusting 6 11.7
2015-Aug-01 21:58 171 6 gusting 6 11.7
2015-Aug-01 21:53 168 10 gusting 12 11.7
2015-Aug-01 21:48 155 10 gusting 10 11.7
2015-Aug-01 21:43 173 6 gusting 10 11.7
2015-Aug-01 21:38 211 8 gusting 11 11.7
2015-Aug-01 21:33 180 8 gusting 13 11.7
2015-Aug-01 21:28 188 8 gusting 10 11.7
2015-Aug-01 21:23 182 7 gusting 7 11.7
2015-Aug-01 21:18 159 7 gusting 7 11.7
2015-Aug-01 21:13 154 7 gusting 6 11.7
2015-Aug-01 21:08 168 8 gusting 8 11.7
2015-Aug-01 21:03 165 7 gusting 6 11.7
2015-Aug-01 20:58 168 7 gusting 6 11.7
2015-Aug-01 20:53 161 7 gusting 8 11.7
2015-Aug-01 20:48 188 8 gusting 6 11.7
2015-Aug-01 20:43 180 8 gusting 7 11.7
2015-Aug-01 20:38 187 7 gusting 7 11.7
2015-Aug-01 20:33 190 8 gusting 10 11.7
2015-Aug-01 20:28 181 9 gusting 7 11.7
2015-Aug-01 20:23 184 10 gusting 8 11.7
2015-Aug-01 20:18 173 8 gusting 8 11.7
2015-Aug-01 20:13 120 8 gusting 7 11.7
2015-Aug-01 20:08 168 7 gusting 6 11.7
2015-Aug-01 20:03 194 7 gusting 7 11.7
2015-Aug-01 19:58 177 8 gusting 7 11.7
2015-Aug-01 19:53 176 9 gusting 10 11.7
2015-Aug-01 19:48 152 6 gusting 6 12.2
2015-Aug-01 19:43 161 6 gusting 8 12.2
2015-Aug-01 19:38 165 7 gusting 11 12.2
2015-Aug-01 19:33 168 10 gusting 8 12.2
2015-Aug-01 19:28 183 7 gusting 7 12.2
2015-Aug-01 19:23 178 11 gusting 10 12.2
2015-Aug-01 19:18 182 9 gusting 10 12.8
2015-Aug-01 19:13 179 9 gusting 11 12.8
2015-Aug-01 19:08 160 11 gusting 11 12.2
2015-Aug-01 19:03 177 9 gusting 11 12.2
2015-Aug-01 18:58 182 12 gusting 13 12.2
2015-Aug-01 18:53 166 10 gusting 11 12.2
2015-Aug-01 18:48 164 7 gusting 7 12.2
2015-Aug-01 18:43 153 5 gusting 5 12.8
2015-Aug-01 18:38 167 4 gusting 5 12.8
2015-Aug-01 18:33 168 4 gusting 4 12.8
2015-Aug-01 18:28 184 4 gusting 4 12.8
2015-Aug-01 18:23 187 4 gusting 5 12.8
2015-Aug-01 18:18 160 4 gusting 6 12.2
2015-Aug-01 18:13 147 5 gusting 6 12.2
2015-Aug-01 18:08 137 5 gusting 6 11.7
2015-Aug-01 18:03 183 6 gusting 6 11.7
2015-Aug-01 17:58 117 8 gusting 7 11.7
2015-Aug-01 17:53 109 9 gusting 10 11.7
2015-Aug-01 17:48 123 7 gusting 10 11.7
2015-Aug-01 17:43 115 8 gusting 8 12.2
2015-Aug-01 17:38 144 9 gusting 8 12.2
2015-Aug-01 17:33 158 7 gusting 11 12.2
2015-Aug-01 17:28 154 11 gusting 11 12.2
2015-Aug-01 17:23 164 11 gusting 10 12.2
2015-Aug-01 17:18 167 9 gusting 10 12.2
2015-Aug-01 17:13 160 13 gusting 11 12.2
2015-Aug-01 17:08 170 9 gusting 13 12.2
2015-Aug-01 17:03 162 14 gusting 13 12.2